Time;durP1;ratioP1;P1;durP2;ratioP2;P2;SDS_P1;SDS_P2;PMS_P1;PMS_P2;Temp;Humidity;BMP_temperature;BMP_pressure;BME280_temperature;BME280_humidity;BME280_pressure;Samples;Min_cycle;Max_cycle;Signal;HPM_P1;HPM_P2
2021/08/25 00:01:39;;;;;;;19.70;10.70;;;;;;;11.19;80.79;101462.58;1705458;84;21101;-76
2021/08/25 00:04:05;;;;;;;15.90;9.43;;;;;;;11.17;80.84;101455.22;1698093;84;21842;-75
2021/08/25 00:06:31;;;;;;;18.98;9.53;;;;;;;11.15;80.87;101455.88;1707463;84;21062;-75
2021/08/25 00:08:58;;;;;;;17.85;10.03;;;;;;;11.11;80.89;101454.48;1707423;84;21046;-75
2021/08/25 00:11:24;;;;;;;21.93;10.30;;;;;;;11.09;80.95;101456.44;1686074;84;21524;-75
2021/08/25 00:13:50;;;;;;;23.15;10.63;;;;;;;11.06;80.97;101450.06;1679290;85;21011;-75
2021/08/25 00:16:17;;;;;;;18.80;10.75;;;;;;;11.03;81.03;101447.69;1678854;85;21115;-75
2021/08/25 00:18:43;;;;;;;19.90;10.40;;;;;;;10.99;81.03;101445.81;1678969;85;21020;-75
2021/08/25 00:21:09;;;;;;;24.23;10.88;;;;;;;10.97;81.10;101444.28;1678975;85;21017;-75
2021/08/25 00:23:35;;;;;;;22.25;10.00;;;;;;;10.94;81.11;101447.25;1679057;85;21090;-75
2021/08/25 00:26:01;;;;;;;24.47;14.18;;;;;;;10.93;81.14;101445.56;1679289;84;21041;-75
2021/08/25 00:28:27;;;;;;;25.82;15.70;;;;;;;10.90;81.16;101443.19;1680884;84;21151;-75
2021/08/25 00:30:53;;;;;;;28.47;16.70;;;;;;;10.89;81.19;101440.17;1679395;85;20985;-75
2021/08/25 00:33:19;;;;;;;28.47;15.00;;;;;;;10.88;81.22;101439.81;1679060;85;21594;-75
2021/08/25 00:35:45;;;;;;;31.27;15.93;;;;;;;10.87;81.23;101438.16;1688459;84;21523;-75
2021/08/25 00:38:11;;;;;;;30.50;15.80;;;;;;;10.85;81.25;101436.10;1698996;83;21327;-75
2021/08/25 00:40:37;;;;;;;21.12;12.70;;;;;;;10.81;81.27;101436.05;1720857;83;21199;-75
2021/08/25 00:43:08;;;;;;;23.50;13.50;;;;;;;10.80;81.31;101423.72;1720870;83;20993;-75
2021/08/25 00:45:37;;;;;;;23.90;13.83;;;;;;;10.81;81.34;101435.55;1720902;83;21039;-75
2021/08/25 00:48:05;;;;;;;22.75;14.05;;;;;;;10.83;81.40;101433.59;1700421;83;21068;-75
2021/08/25 00:50:31;;;;;;;25.68;13.62;;;;;;;10.87;81.48;101431.48;1691882;84;21064;-75
2021/08/25 00:52:57;;;;;;;25.12;14.23;;;;;;;10.93;81.56;101426.88;1692053;84;21200;-75
2021/08/25 00:55:23;;;;;;;24.00;14.25;;;;;;;11.00;81.68;101426.15;1691619;84;20896;-75
2021/08/25 00:57:49;;;;;;;27.30;15.75;;;;;;;11.06;81.79;101422.52;1709297;83;21047;-75
2021/08/25 01:00:15;;;;;;;28.80;16.42;;;;;;;11.10;81.91;101419.42;1720844;83;21472;-75
2021/08/25 01:02:56;;;;;;;30.02;15.83;;;;;;;11.17;82.02;101416.50;1720921;83;20996;-75
2021/08/25 01:05:23;;;;;;;27.70;15.90;;;;;;;11.25;82.17;101413.94;1721011;83;21563;-75
2021/08/25 01:07:50;;;;;;;27.85;14.78;;;;;;;11.28;82.30;101407.45;1720490;83;21055;-75
2021/08/25 01:10:31;;;;;;;23.60;14.33;;;;;;;11.32;82.46;101408.84;1696337;83;21036;-75
2021/08/25 01:13:00;;;;;;;27.93;15.15;;;;;;;11.36;82.60;101401.72;1720698;83;21012;-75
2021/08/25 01:15:27;;;;;;;25.12;14.63;;;;;;;11.40;82.73;101400.40;1706204;83;21016;-75
2021/08/25 01:17:54;;;;;;;28.12;15.10;;;;;;;11.44;82.84;101404.45;1691754;83;21139;-75
2021/08/25 01:20:23;;;;;;;26.27;17.07;;;;;;;11.44;82.97;101404.45;1692073;84;20991;-75
2021/08/25 01:22:49;;;;;;;26.42;16.17;;;;;;;11.43;83.12;101400.09;1691757;84;21126;-76
2021/08/25 01:25:15;;;;;;;28.32;17.05;;;;;;;11.38;83.17;101398.88;1691896;84;21020;-75
2021/08/25 01:27:45;;;;;;;25.85;15.58;;;;;;;11.32;83.29;101396.33;1685866;83;21450;-75
2021/08/25 01:30:12;;;;;;;33.08;13.22;;;;;;;11.30;83.40;101395.62;1720331;83;21968;-75
2021/08/25 01:32:39;;;;;;;24.72;13.90;;;;;;;11.25;83.49;101388.57;1720710;83;21024;-75
2021/08/25 01:35:05;;;;;;;27.52;13.40;;;;;;;11.22;83.59;101387.55;1714451;83;21003;-75
2021/08/25 01:37:32;;;;;;;22.58;12.80;;;;;;;11.25;83.70;101388.57;1701660;84;20986;-75
2021/08/25 01:39:58;;;;;;;23.95;13.22;;;;;;;11.27;83.75;101380.39;1702038;84;21468;-75
2021/08/25 01:42:24;;;;;;;24.52;13.43;;;;;;;11.20;83.85;101380.16;1701326;84;21117;-75
2021/08/25 01:44:50;;;;;;;22.42;11.38;;;;;;;11.12;83.94;101380.05;1700098;84;21373;-76
2021/08/25 01:47:17;;;;;;;21.82;10.35;;;;;;;11.03;83.99;101379.63;1701996;84;21006;-75
2021/08/25 01:49:46;;;;;;;21.57;12.33;;;;;;;10.99;84.08;101384.91;1702052;84;21058;-75
2021/08/25 01:52:13;;;;;;;22.75;11.50;;;;;;;10.99;84.14;101387.58;1702098;84;21339;-75
2021/08/25 01:54:39;;;;;;;25.20;12.43;;;;;;;10.93;84.18;101385.52;1702047;84;21143;-75
2021/08/25 01:57:08;;;;;;;22.77;11.10;;;;;;;10.85;84.21;101384.06;1699917;84;20971;-75
2021/08/25 01:59:35;;;;;;;21.57;11.45;;;;;;;10.78;84.28;101381.64;1687624;84;21057;-75
2021/08/25 02:02:02;;;;;;;19.92;10.75;;;;;;;10.76;84.34;101384.97;1678295;84;21011;-76
2021/08/25 02:04:28;;;;;;;22.37;11.22;;;;;;;10.75;84.39;101378.78;1679828;84;21009;-75
2021/08/25 02:06:54;;;;;;;22.30;11.38;;;;;;;10.69;84.45;101379.87;1686363;84;21164;-75
2021/08/25 02:09:21;;;;;;;20.15;10.15;;;;;;;10.65;84.54;101371.81;1702051;84;21479;-75
2021/08/25 02:11:47;;;;;;;22.22;11.85;;;;;;;10.52;84.53;101373.45;1702083;84;21035;-75
2021/08/25 02:14:13;;;;;;;20.68;11.65;;;;;;;10.45;84.61;101367.86;1701963;84;21027;-75
2021/08/25 02:16:40;;;;;;;18.80;10.15;;;;;;;10.48;84.72;101368.09;1702316;84;21006;-75
2021/08/25 02:19:05;;;;;;;19.35;10.40;;;;;;;10.48;84.77;101367.56;1700262;84;21543;-75
2021/08/25 02:21:32;;;;;;;17.52;9.55;;;;;;;10.46;84.83;101366.88;1701854;84;21027;-75
2021/08/25 02:23:58;;;;;;;25.08;11.45;;;;;;;10.43;84.90;101367.18;1680662;84;21038;-75
2021/08/25 02:26:24;;;;;;;22.87;12.33;;;;;;;10.45;84.95;101362.53;1675216;84;20998;-75
2021/08/25 02:28:51;;;;;;;38.90;18.65;;;;;;;10.45;85.00;101361.68;1701816;84;21034;-75
2021/08/25 02:31:17;;;;;;;33.50;17.23;;;;;;;10.46;85.03;101358.04;1702024;84;21873;-75
2021/08/25 02:33:43;;;;;;;20.32;11.83;;;;;;;10.47;85.06;101355.23;1701928;84;20987;-75
2021/08/25 02:36:09;;;;;;;22.82;10.20;;;;;;;10.51;85.10;101349.97;1701922;84;20967;-75
2021/08/25 02:38:36;;;;;;;20.12;11.15;;;;;;;10.54;85.13;101352.83;1702051;84;21070;-75
2021/08/25 02:41:07;;;;;;;23.65;12.28;;;;;;;10.54;85.21;101354.16;1701982;84;21099;-75
2021/08/25 02:43:33;;;;;;;24.40;13.20;;;;;;;10.45;85.24;101349.19;1684165;84;21226;-75
2021/08/25 02:45:59;;;;;;;24.67;12.75;;;;;;;10.41;85.29;101350.98;1673830;85;21016;-75
2021/08/25 02:48:25;;;;;;;24.82;12.00;;;;;;;10.40;85.30;101350.62;1673831;85;21018;-75
2021/08/25 02:50:51;;;;;;;21.87;11.57;;;;;;;10.38;85.34;101348.09;1673702;85;21018;-75
2021/08/25 02:53:17;;;;;;;27.07;12.37;;;;;;;10.33;85.39;101338.37;1681507;84;20963;-75
2021/08/25 02:55:45;;;;;;;30.27;11.85;;;;;;;10.23;85.37;101341.56;1701791;84;21708;-76
2021/08/25 02:58:11;;;;;;;23.57;11.05;;;;;;;10.12;85.39;101335.03;1700052;84;20952;-75
2021/08/25 03:00:37;;;;;;;16.23;8.83;;;;;;;10.02;85.40;101331.07;1701846;84;21055;-76
2021/08/25 03:03:03;;;;;;;21.40;10.45;;;;;;;9.91;85.47;101325.05;1677209;84;20886;-75
2021/08/25 03:05:29;;;;;;;20.52;10.82;;;;;;;9.68;85.52;101285.04;1673732;85;21000;-75
2021/08/25 03:07:55;;;;;;;24.00;13.00;;;;;;;9.84;85.58;101313.28;1673581;84;21185;-75
2021/08/25 03:10:21;;;;;;;25.97;15.05;;;;;;;9.79;85.63;101313.70;1673643;85;20990;-75
2021/08/25 03:12:47;;;;;;;33.55;16.82;;;;;;;9.68;85.63;101307.67;1673780;85;21512;-75
2021/08/25 03:15:13;;;;;;;29.02;15.10;;;;;;;9.56;85.64;101303.50;1673846;85;21534;-75
2021/08/25 03:17:39;;;;;;;26.02;15.10;;;;;;;9.45;85.67;101301.82;1673707;85;21563;-75
2021/08/25 03:20:06;;;;;;;26.33;14.78;;;;;;;9.40;85.76;101304.90;1673958;85;22052;-75
2021/08/25 03:22:32;;;;;;;25.92;13.28;;;;;;;9.24;85.80;101266.03;1673563;85;20994;-75
2021/08/25 03:24:58;;;;;;;21.00;12.63;;;;;;;9.46;85.90;101295.52;1673721;85;21014;-76
2021/08/25 03:27:24;;;;;;;26.35;13.95;;;;;;;9.46;85.94;101293.67;1675486;84;21050;-75
2021/08/25 03:29:50;;;;;;;21.70;12.88;;;;;;;9.44;85.98;101296.98;1673850;85;21042;-75
2021/08/25 03:32:16;;;;;;;27.05;14.30;;;;;;;9.42;86.02;101292.79;1674087;85;21883;-75
2021/08/25 03:34:42;;;;;;;26.85;13.32;;;;;;;9.41;86.04;101290.61;1673634;85;21010;-75
2021/08/25 03:37:08;;;;;;;29.05;14.63;;;;;;;9.37;86.03;101293.69;1673511;85;20999;-76
2021/08/25 03:39:34;;;;;;;32.28;16.82;;;;;;;9.31;86.08;101293.77;1673188;85;21088;-75
2021/08/25 03:42:00;;;;;;;35.75;18.20;;;;;;;9.28;86.13;101295.38;1673839;84;21511;-75
2021/08/25 03:44:26;;;;;;;32.30;16.02;;;;;;;9.28;86.16;101294.54;1673667;85;21790;-75
2021/08/25 03:46:52;;;;;;;30.32;18.17;;;;;;;9.24;86.21;101287.33;1673772;84;21337;-75
2021/08/25 03:49:18;;;;;;;28.50;16.80;;;;;;;9.22;86.29;101291.11;1673759;85;20915;-75
2021/08/25 03:51:44;;;;;;;26.62;15.72;;;;;;;9.20;86.28;101287.73;1673830;84;21054;-75
2021/08/25 03:54:10;;;;;;;31.20;18.15;;;;;;;9.19;86.30;101286.89;1675626;84;21041;-75
2021/08/25 03:56:36;;;;;;;28.73;17.42;;;;;;;9.25;86.35;101287.69;1676224;84;21047;-75
2021/08/25 03:59:03;;;;;;;24.87;14.18;;;;;;;9.26;86.39;101288.50;1697771;84;21069;-75
2021/08/25 04:01:30;;;;;;;28.85;16.30;;;;;;;9.20;86.41;101284.59;1701978;84;21475;-75
2021/08/25 04:03:56;;;;;;;34.60;18.45;;;;;;;9.22;86.46;101275.14;1702106;84;21045;-75
2021/08/25 04:06:22;;;;;;;27.42;16.97;;;;;;;9.30;86.48;101278.77;1702190;84;20994;-75
2021/08/25 04:08:48;;;;;;;25.62;15.45;;;;;;;9.26;86.46;101274.70;1702136;84;21693;-75
2021/08/25 04:11:19;;;;;;;24.63;11.95;;;;;;;9.26;86.49;101276.03;1688641;84;21081;-75
2021/08/25 04:13:45;;;;;;;24.32;12.88;;;;;;;9.27;86.53;101279.05;1673618;85;21091;-76
2021/08/25 04:16:11;;;;;;;26.65;13.35;;;;;;;9.28;86.56;101278.57;1673667;85;21030;-76
2021/08/25 04:18:37;;;;;;;26.45;14.93;;;;;;;9.30;86.58;101278.77;1673676;85;21081;-75
2021/08/25 04:21:03;;;;;;;32.53;15.25;;;;;;;9.35;86.60;101274.37;1673778;85;21697;-76
2021/08/25 04:23:29;;;;;;;26.23;15.48;;;;;;;9.40;86.62;101267.63;1673644;84;21467;-76
2021/08/25 04:25:55;;;;;;;54.33;28.35;;;;;;;9.42;86.66;101262.17;1673836;85;20998;-75
2021/08/25 04:28:21;;;;;;;36.93;20.27;;;;;;;9.43;86.66;101260.69;1696095;84;21437;-76
2021/08/25 04:30:47;;;;;;;26.05;15.15;;;;;;;9.44;86.64;101262.38;1692818;84;21011;-76
2021/08/25 04:33:13;;;;;;;32.35;14.35;;;;;;;9.83;86.77;101262.31;1673814;85;21154;-76
2021/08/25 04:35:39;;;;;;;29.95;14.55;;;;;;;10.67;87.13;101257.78;1677376;84;20944;-76
2021/08/25 04:38:05;;;;;;;36.85;19.55;;;;;;;11.39;87.12;101260.35;1691948;84;21095;-76
2021/08/25 04:40:31;;;;;;;46.20;20.45;;;;;;;11.62;86.49;101262.02;1691890;84;21028;-76
2021/08/25 04:42:58;;;;;;;29.05;15.55;;;;;;;12.10;86.32;101258.39;1691928;84;20904;-76
2021/08/25 04:45:24;;;;;;;32.67;16.65;;;;;;;12.93;86.71;101258.88;1692067;84;21166;-76
2021/08/25 04:47:50;;;;;;;28.73;17.00;;;;;;;13.80;86.74;101256.08;1691971;84;21011;-76
2021/08/25 04:50:16;;;;;;;35.25;17.12;;;;;;;14.72;86.49;101252.30;1692039;84;21043;-76
2021/08/25 04:52:42;;;;;;;19.50;12.58;;;;;;;15.33;86.03;101250.05;1698856;83;20893;-76
2021/08/25 04:55:08;;;;;;;19.25;11.88;;;;;;;15.76;85.65;101247.70;1720932;83;21099;-77
2021/08/25 04:57:34;;;;;;;24.77;12.65;;;;;;;16.00;85.30;101247.45;1705962;83;21202;-76
2021/08/25 05:00:00;;;;;;;21.00;13.75;;;;;;;16.48;84.86;101243.35;1692020;83;20983;-77
2021/08/25 05:02:26;;;;;;;25.60;13.18;;;;;;;16.84;84.57;101244.25;1699651;83;21031;-76
2021/08/25 05:04:52;;;;;;;19.25;11.12;;;;;;;17.24;84.13;101241.44;1720878;83;21007;-77
2021/08/25 05:07:18;;;;;;;18.70;10.63;;;;;;;17.73;83.65;101248.77;1720862;83;21007;-77
2021/08/25 05:09:44;;;;;;;23.47;10.85;;;;;;;18.11;83.14;101246.03;1720765;83;21170;-77
2021/08/25 05:12:10;;;;;;;25.62;12.00;;;;;;;18.43;82.45;101237.80;1720777;83;20948;-77
2021/08/25 05:14:36;;;;;;;19.27;10.80;;;;;;;18.42;81.47;101239.66;1720922;83;20995;-77
2021/08/25 05:17:03;;;;;;;20.08;11.03;;;;;;;18.07;80.66;101235.81;1721082;83;21504;-77
2021/08/25 05:19:29;;;;;;;18.90;10.08;;;;;;;17.52;80.74;101231.23;1720960;83;21008;-77
2021/08/25 05:21:55;;;;;;;18.82;8.18;;;;;;;17.01;81.03;101235.41;1720808;83;21138;-77
2021/08/25 05:24:21;;;;;;;16.75;7.72;;;;;;;16.71;81.52;101231.14;1711527;83;20968;-77
2021/08/25 05:26:47;;;;;;;15.08;9.28;;;;;;;16.67;81.75;101235.23;1697125;83;21047;-77
2021/08/25 05:29:13;;;;;;;20.05;10.68;;;;;;;16.60;81.92;101231.13;1720894;83;21013;-77
2021/08/25 05:31:39;;;;;;;29.82;15.25;;;;;;;16.52;82.10;101230.34;1721062;83;21067;-77
2021/08/25 05:34:05;;;;;;;27.07;16.32;;;;;;;16.72;82.08;101232.79;1721158;83;21071;-77
2021/08/25 05:36:31;;;;;;;29.12;16.45;;;;;;;16.89;82.06;101231.53;1720309;82;21101;-77
2021/08/25 05:38:57;;;;;;;24.52;16.00;;;;;;;17.07;82.08;101229.25;1720931;83;20900;-77
2021/08/25 05:41:23;;;;;;;31.80;16.87;;;;;;;17.17;82.20;101229.76;1714832;83;21074;-77
2021/08/25 05:43:49;;;;;;;28.98;17.65;;;;;;;17.19;82.33;101227.72;1720930;83;20919;-77
2021/08/25 05:46:15;;;;;;;25.45;16.10;;;;;;;17.27;82.28;101223.56;1716172;83;21493;-77
2021/08/25 05:48:41;;;;;;;20.02;13.58;;;;;;;17.48;82.23;101224.05;1717797;83;21492;-77
2021/08/25 05:51:07;;;;;;;19.62;12.00;;;;;;;17.57;82.17;101216.66;1720944;83;20987;-77
2021/08/25 05:53:33;;;;;;;22.58;14.20;;;;;;;17.39;82.10;101214.41;1697800;83;20959;-77
2021/08/25 05:55:59;;;;;;;22.75;14.03;;;;;;;17.31;81.98;101212.67;1692093;84;20999;-77
2021/08/25 05:58:25;;;;;;;25.17;16.62;;;;;;;17.47;81.83;101209.73;1692633;83;21096;-77
2021/08/25 06:00:51;;;;;;;23.00;14.43;;;;;;;17.45;81.75;101213.11;1697607;83;21080;-77
2021/08/25 06:03:17;;;;;;;34.95;24.63;;;;;;;17.58;81.72;101206.20;1720961;83;21059;-77
2021/08/25 06:05:43;;;;;;;46.50;29.48;;;;;;;17.77;81.57;101212.25;1720643;83;21485;-78
2021/08/25 06:08:09;;;;;;;31.55;18.37;;;;;;;17.96;81.42;101199.41;1720591;83;20924;-77
2021/08/25 06:10:35;;;;;;;37.75;25.30;;;;;;;18.07;81.36;101200.21;1720132;83;21461;-77
2021/08/25 06:13:01;;;;;;;42.90;25.80;;;;;;;18.14;81.26;101198.89;1720785;83;21263;-77
2021/08/25 06:15:27;;;;;;;38.02;24.07;;;;;;;18.14;81.15;101195.68;1720629;83;21488;-77
2021/08/25 06:17:53;;;;;;;33.88;21.12;;;;;;;18.21;80.93;101201.11;1720600;83;21535;-77
2021/08/25 06:20:19;;;;;;;29.23;19.32;;;;;;;18.25;80.78;101196.47;1693763;83;20976;-77
2021/08/25 06:22:45;;;;;;;31.10;19.73;;;;;;;18.34;80.59;101191.20;1708830;83;21415;-77
2021/08/25 06:25:11;;;;;;;32.38;18.15;;;;;;;18.16;80.61;101196.81;1708358;83;21061;-77
2021/08/25 06:27:37;;;;;;;31.80;18.25;;;;;;;17.92;80.64;101192.73;1705875;83;20996;-77
2021/08/25 06:30:04;;;;;;;26.77;18.17;;;;;;;17.98;80.75;101193.28;1706974;83;21409;-77
2021/08/25 06:32:30;;;;;;;24.18;15.65;;;;;;;18.05;80.57;101191.45;1697630;83;21063;-76
2021/08/25 06:34:56;;;;;;;8.05;4.85;;;;;;;18.10;80.45;101193.06;1695846;83;21472;-76
2021/08/25 06:37:22;;;;;;;9.48;5.00;;;;;;;18.07;80.27;101193.46;1686268;83;21062;-77
2021/08/25 06:39:48;;;;;;;6.85;3.45;;;;;;;18.16;80.24;101185.50;1700743;84;21058;-76
2021/08/25 06:42:14;;;;;;;6.20;3.60;;;;;;;18.40;80.04;101180.94;1687773;82;21182;-77
2021/08/25 06:44:40;;;;;;;7.00;3.27;;;;;;;18.14;79.68;101183.53;1689116;82;21022;-76
2021/08/25 06:47:06;;;;;;;7.53;3.05;;;;;;;18.23;79.66;101173.38;1689176;84;21324;-78
2021/08/25 06:49:32;;;;;;;5.30;3.27;;;;;;;18.47;79.53;101170.98;1689352;84;21093;-77
2021/08/25 06:51:58;;;;;;;9.68;4.10;;;;;;;18.63;79.29;101164.95;1687438;84;21101;-76
2021/08/25 06:54:24;;;;;;;8.03;2.80;;;;;;;18.68;79.00;101161.12;1684659;84;21668;-77
2021/08/25 06:56:51;;;;;;;7.20;3.80;;;;;;;18.75;78.88;101160.08;1684374;84;20887;-77
2021/08/25 06:59:16;;;;;;;6.00;3.33;;;;;;;18.79;78.60;101159.15;1690331;84;21715;-79
2021/08/25 07:01:43;;;;;;;6.00;2.72;;;;;;;18.86;78.45;101154.08;1686453;84;21063;-78
2021/08/25 07:04:09;;;;;;;5.62;2.90;;;;;;;18.92;78.17;101151.09;1691614;84;21074;-78
2021/08/25 07:06:35;;;;;;;6.65;3.40;;;;;;;18.96;77.91;101149.64;1696152;84;20975;-76
2021/08/25 07:09:01;;;;;;;6.28;3.37;;;;;;;19.00;77.53;101150.06;1690319;84;21339;-78
2021/08/25 07:11:27;;;;;;;5.12;3.05;;;;;;;19.01;77.32;101143.08;1684457;84;21341;-78
2021/08/25 07:13:53;;;;;;;6.08;2.95;;;;;;;18.99;76.89;101146.52;1700776;84;21516;-78
2021/08/25 07:16:19;;;;;;;9.00;7.17;;;;;;;18.86;76.37;101147.83;1695373;84;21017;-78
2021/08/25 07:18:47;;;;;;;4.97;3.00;;;;;;;18.90;76.16;101143.17;1696889;84;20878;-78
2021/08/25 07:21:13;;;;;;;6.17;3.22;;;;;;;18.89;75.77;101143.39;1702537;84;21062;-77
2021/08/25 07:23:39;;;;;;;7.05;3.65;;;;;;;18.79;75.12;101142.42;1688107;84;21365;-78
2021/08/25 07:26:05;;;;;;;5.35;3.45;;;;;;;18.81;74.75;101138.17;1671616;83;21084;-78
2021/08/25 07:28:31;;;;;;;7.80;2.80;;;;;;;18.94;74.45;101132.78;1683811;84;20927;-78
2021/08/25 07:30:57;;;;;;;5.83;3.45;;;;;;;19.02;74.04;101135.80;1678080;84;21519;-77
2021/08/25 07:33:24;;;;;;;5.42;3.20;;;;;;;19.22;73.54;101133.41;1685942;84;21579;-78
2021/08/25 07:35:50;;;;;;;7.80;3.00;;;;;;;19.13;72.97;101127.08;1708652;83;21413;-77
2021/08/25 07:38:16;;;;;;;5.75;2.90;;;;;;;19.00;72.53;101129.23;1682776;84;21149;-78
2021/08/25 07:40:43;;;;;;;5.85;3.20;;;;;;;18.91;71.94;101126.44;1677632;84;21033;-78
2021/08/25 07:43:09;;;;;;;6.22;3.35;;;;;;;18.98;71.65;101115.11;1712530;82;21559;-77
2021/08/25 07:45:36;;;;;;;6.92;3.25;;;;;;;19.11;71.24;101114.27;1691748;84;20994;-77
2021/08/25 07:48:03;;;;;;;16.23;8.83;;;;;;;19.18;70.58;101113.23;1652076;85;21459;-78
2021/08/25 07:50:29;;;;;;;5.87;3.67;;;;;;;19.24;70.13;101111.06;1704693;82;20999;-78
2021/08/25 07:52:55;;;;;;;5.92;3.22;;;;;;;19.27;69.80;101107.94;1706031;84;21063;-78
2021/08/25 07:55:21;;;;;;;7.15;3.70;;;;;;;19.42;69.47;101103.15;1706021;82;21424;-78
2021/08/25 07:57:47;;;;;;;8.33;3.83;;;;;;;19.42;68.76;101107.20;1705917;84;20987;-78
2021/08/25 08:00:14;;;;;;;5.42;3.33;;;;;;;19.48;68.28;101100.66;1706063;84;22202;-77
2021/08/25 08:02:40;;;;;;;6.25;3.17;;;;;;;19.46;67.89;101100.05;1705505;84;21007;-78
2021/08/25 08:05:07;;;;;;;5.70;3.33;;;;;;;19.58;67.46;101094.28;1706129;83;20904;-78
2021/08/25 08:07:33;;;;;;;6.97;3.60;;;;;;;19.43;66.92;101097.22;1705342;84;21006;-78
2021/08/25 08:10:01;;;;;;;5.75;3.42;;;;;;;19.35;66.52;101099.59;1705855;84;21457;-78
2021/08/25 08:12:27;;;;;;;5.78;3.50;;;;;;;19.25;66.06;101099.19;1689890;84;21430;-78
2021/08/25 08:14:53;;;;;;;5.17;3.45;;;;;;;19.37;65.76;101096.69;1705482;83;20880;-77
2021/08/25 08:17:21;;;;;;;7.62;4.00;;;;;;;19.36;65.40;101099.07;1705701;82;20963;-78
2021/08/25 08:19:46;;;;;;;7.62;3.90;;;;;;;19.21;64.83;101095.23;1705613;83;21007;-77
2021/08/25 08:22:12;;;;;;;6.30;3.47;;;;;;;19.18;64.51;101087.55;1705886;82;21062;-78
2021/08/25 08:24:38;;;;;;;6.87;3.77;;;;;;;19.27;64.32;101082.25;1706097;84;21371;-78
2021/08/25 08:27:06;;;;;;;7.00;3.70;;;;;;;19.42;64.11;101082.05;1705813;84;20911;-77
2021/08/25 08:29:32;;;;;;;6.00;3.55;;;;;;;19.49;63.85;101073.92;1705988;83;21535;-78
2021/08/25 08:31:58;;;;;;;7.00;4.15;;;;;;;19.54;63.52;101070.04;1689415;84;20991;-78
2021/08/25 08:34:24;;;;;;;8.28;4.87;;;;;;;19.62;63.33;101071.17;1705973;84;21070;-78
2021/08/25 08:36:50;;;;;;;8.73;4.37;;;;;;;19.65;63.11;101067.52;1703995;84;21489;-77
2021/08/25 08:39:16;;;;;;;10.48;5.85;;;;;;;19.69;62.81;101066.05;1691806;84;21050;-77
2021/08/25 08:41:42;;;;;;;8.30;4.28;;;;;;;19.76;62.67;101059.27;1691464;84;20909;-77
2021/08/25 08:44:11;;;;;;;5.95;3.75;;;;;;;19.79;62.46;101060.19;1674468;85;21364;-77
2021/08/25 08:46:40;;;;;;;8.53;3.87;;;;;;;19.66;62.16;101057.02;1674078;85;21037;-78
2021/08/25 08:49:06;;;;;;;7.42;4.08;;;;;;;19.70;62.07;101055.52;1674431;85;21625;-78
2021/08/25 08:51:32;;;;;;;5.53;3.85;;;;;;;19.72;61.75;101050.73;1649444;85;21095;-78
2021/08/25 08:53:58;;;;;;;6.58;4.17;;;;;;;19.46;61.35;101048.64;1627036;85;21004;-77
2021/08/25 08:56:24;;;;;;;9.55;4.53;;;;;;;19.35;61.36;101050.89;1674499;84;20981;-77
2021/08/25 08:58:53;;;;;;;6.37;3.72;;;;;;;19.41;61.17;101042.51;1674428;85;21001;-78
2021/08/25 09:01:18;;;;;;;8.13;4.67;;;;;;;18.98;60.64;101032.66;1674426;84;22098;-78
2021/08/25 09:03:44;;;;;;;8.70;4.87;;;;;;;18.43;60.53;101032.00;1674366;85;21001;-77
2021/08/25 09:06:11;;;;;;;9.38;4.75;;;;;;;18.15;60.56;101034.02;1674380;85;21004;-77
2021/08/25 09:08:39;;;;;;;7.05;4.78;;;;;;;18.26;60.40;101016.39;1674610;85;21033;-77
2021/08/25 09:11:15;;;;;;;10.53;5.33;;;;;;;18.07;60.06;101024.74;1674341;85;21073;-77
2021/08/25 09:13:48;;;;;;;9.88;5.42;;;;;;;18.26;60.28;101013.14;1674568;84;21941;-77
2021/08/25 09:16:29;;;;;;;8.75;5.20;;;;;;;18.66;60.27;101007.81;1649701;85;21116;-77
2021/08/25 09:19:18;;;;;;;7.70;4.75;;;;;;;19.03;60.28;101002.30;1674656;85;21500;-77
2021/08/25 09:21:46;;;;;;;8.68;5.40;;;;;;;19.30;60.02;100991.22;1672978;84;20993;-77
2021/08/25 09:24:13;;;;;;;11.68;5.15;;;;;;;19.18;59.39;100986.13;1674374;85;21509;-78
2021/08/25 09:27:07;;;;;;;9.88;4.67;;;;;;;18.84;59.07;100981.84;1674560;85;21169;-77
2021/08/25 09:29:33;;;;;;;9.63;4.62;;;;;;;18.85;58.95;100978.61;1663219;85;21048;-77
2021/08/25 09:31:59;;;;;;;10.20;5.97;;;;;;;18.94;58.72;100978.70;1674232;85;21085;-77
2021/08/25 09:34:31;;;;;;;7.70;4.42;;;;;;;19.08;58.48;100974.09;1674647;85;20885;-78
2021/08/25 09:37:09;;;;;;;10.05;4.75;;;;;;;19.18;58.26;100977.19;1682588;83;21011;-77
2021/08/25 09:39:41;;;;;;;7.50;4.45;;;;;;;19.15;57.93;100975.74;1683917;83;21950;-77
2021/08/25 09:42:07;;;;;;;9.15;4.67;;;;;;;18.99;57.71;100970.80;1680073;83;21059;-77
2021/08/25 09:44:33;;;;;;;6.58;4.37;;;;;;;19.08;57.72;100966.81;1674886;84;21017;-77
2021/08/25 09:46:59;;;;;;;8.83;4.83;;;;;;;19.34;57.67;100958.64;1681019;84;21048;-78
2021/08/25 09:49:26;;;;;;;7.90;4.75;;;;;;;19.49;57.62;100954.88;1681946;84;21026;-77
2021/08/25 09:51:54;;;;;;;11.15;4.65;;;;;;;19.54;57.48;100944.22;1678705;84;21154;-78
2021/08/25 09:54:19;;;;;;;12.23;4.78;;;;;;;19.61;57.37;100944.50;1682559;84;21081;-78
2021/08/25 09:56:45;;;;;;;15.72;4.65;;;;;;;19.66;57.30;100939.81;1683443;84;21085;-77
2021/08/25 09:59:13;;;;;;;12.60;5.28;;;;;;;19.64;57.07;100939.17;1681939;84;21105;-76
2021/08/25 10:01:40;;;;;;;11.12;4.70;;;;;;;19.62;56.94;100930.45;1675153;84;21058;-76
2021/08/25 10:04:08;;;;;;;8.78;4.60;;;;;;;19.68;56.81;100916.88;1680266;84;21236;-77
2021/08/25 10:06:36;;;;;;;9.40;5.15;;;;;;;19.71;56.68;100912.91;1689456;83;21051;-77
2021/08/25 10:09:07;;;;;;;9.60;4.97;;;;;;;19.66;56.67;100904.63;1686114;84;21669;-77
2021/08/25 10:11:35;;;;;;;10.45;5.10;;;;;;;19.71;56.58;100896.15;1675518;84;21033;-77
2021/08/25 10:14:09;;;;;;;9.40;5.08;;;;;;;19.68;56.11;100890.34;1688077;83;21078;-77
2021/08/25 10:16:48;;;;;;;7.45;5.22;;;;;;;19.55;55.99;100886.36;1681277;84;21143;-78
2021/08/25 10:19:38;;;;;;;12.75;5.35;;;;;;;19.47;55.94;100892.02;1680668;84;21010;-77
2021/08/25 10:22:19;;;;;;;16.52;5.87;;;;;;;19.40;55.87;100888.80;1681926;84;22246;-77
2021/08/25 10:25:06;;;;;;;10.38;5.65;;;;;;;19.31;55.86;100885.20;1681108;84;21046;-77
2021/08/25 10:27:33;;;;;;;7.40;4.72;;;;;;;19.23;55.69;100880.87;1677648;84;21054;-77
2021/08/25 10:30:06;;;;;;;8.88;4.80;;;;;;;19.23;55.58;100871.92;1682309;84;21880;-77
2021/08/25 10:32:35;;;;;;;9.60;4.60;;;;;;;19.40;55.55;100860.39;1681354;84;21543;-77
2021/08/25 10:35:21;;;;;;;9.28;6.03;;;;;;;19.59;55.47;100855.96;1680664;84;21380;-77
2021/08/25 10:37:48;;;;;;;8.80;5.35;;;;;;;19.63;55.33;100852.30;1674998;84;21536;-77
2021/08/25 10:40:17;;;;;;;7.58;4.80;;;;;;;19.66;55.20;100858.62;1653063;85;21541;-77
2021/08/25 10:42:52;;;;;;;9.10;5.40;;;;;;;19.56;55.20;100847.45;1678090;84;21133;-77
2021/08/25 10:45:47;;;;;;;9.00;5.22;;;;;;;19.57;55.24;100843.67;1684424;84;21706;-77
2021/08/25 10:48:13;;;;;;;8.83;5.03;;;;;;;19.68;55.28;100840.27;1677189;84;21117;-77
2021/08/25 10:50:53;;;;;;;7.17;4.72;;;;;;;19.69;54.89;100836.53;1679826;84;21061;-77
2021/08/25 10:53:34;;;;;;;7.95;4.58;;;;;;;19.66;54.75;100828.33;1673456;84;21690;-77
2021/08/25 10:56:18;;;;;;;10.20;5.20;;;;;;;19.71;54.75;100819.53;1673783;85;21800;-77
2021/08/25 10:58:55;;;;;;;9.18;5.15;;;;;;;19.76;54.70;100811.08;1672156;85;21538;-77
2021/08/25 11:01:44;;;;;;;11.60;5.30;;;;;;;19.75;54.64;100811.28;1673792;84;21060;-77
2021/08/25 11:04:14;;;;;;;10.80;5.58;;;;;;;19.74;54.57;100801.50;1673595;85;21534;-77
2021/08/25 11:06:45;;;;;;;7.20;4.83;;;;;;;19.80;54.43;100801.48;1674080;84;21556;-77
2021/08/25 11:09:21;;;;;;;10.88;5.00;;;;;;;19.77;54.23;100798.38;1674061;85;21100;-77
2021/08/25 11:12:12;;;;;;;8.53;5.15;;;;;;;19.70;54.12;100788.12;1673199;85;21040;-77
2021/08/25 11:14:50;;;;;;;9.83;5.15;;;;;;;19.66;53.83;100780.14;1671933;85;21572;-77
2021/08/25 11:17:22;;;;;;;7.35;4.85;;;;;;;19.63;53.59;100783.30;1673858;85;21502;-77
2021/08/25 11:19:56;;;;;;;10.55;4.95;;;;;;;19.60;53.59;100778.32;1674052;85;21052;-77